sensor_id;sensor_type;location;lat;lon;timestamp;pressure;altitude;pressure_sealevel;temperature
68440;BMP180;55421;51.600;5.718;2022-09-03T00:02:40;224462.59;;;17.80
68440;BMP180;55421;51.600;5.718;2022-09-03T00:05:25;224437.80;;;17.80
68440;BMP180;55421;51.600;5.718;2022-09-03T00:08:18;224400.20;;;17.70
68440;BMP180;55421;51.600;5.718;2022-09-03T00:13:33;224357.41;;;17.66
68440;BMP180;55421;51.600;5.718;2022-09-03T00:16:08;224369.00;;;17.70
68440;BMP180;55421;51.600;5.718;2022-09-03T00:18:45;224363.59;;;17.70
68440;BMP180;55421;51.600;5.718;2022-09-03T00:21:54;224363.41;;;17.70
68440;BMP180;55421;51.600;5.718;2022-09-03T00:24:16;224351.00;;;17.64
68440;BMP180;55421;51.600;5.718;2022-09-03T00:26:52;224354.20;;;17.68
68440;BMP180;55421;51.600;5.718;2022-09-03T00:29:27;224359.00;;;17.66
68440;BMP180;55421;51.600;5.718;2022-09-03T00:32:02;224359.00;;;17.66
68440;BMP180;55421;51.600;5.718;2022-09-03T00:34:35;224347.80;;;17.60
68440;BMP180;55421;51.600;5.718;2022-09-03T00:37:04;224311.41;;;17.60
68440;BMP180;55421;51.600;5.718;2022-09-03T00:39:30;224272.20;;;17.50
68440;BMP180;55421;51.600;5.718;2022-09-03T00:45:03;224240.00;;;17.42
68440;BMP180;55421;51.600;5.718;2022-09-03T00:50:52;224226.20;;;17.40
68440;BMP180;55421;51.600;5.718;2022-09-03T00:56:47;224138.41;;;17.30
68440;BMP180;55421;51.600;5.718;2022-09-03T00:59:48;224131.41;;;17.28
68440;BMP180;55421;51.600;5.718;2022-09-03T01:02:45;224138.41;;;17.30
68440;BMP180;55421;51.600;5.718;2022-09-03T01:06:16;224138.41;;;17.30
68440;BMP180;55421;51.600;5.718;2022-09-03T01:14:59;224124.59;;;17.20
68440;BMP180;55421;51.600;5.718;2022-09-03T01:20:43;224062.20;;;17.10
68440;BMP180;55421;51.600;5.718;2022-09-03T01:29:39;224007.20;;;17.00
68440;BMP180;55421;51.600;5.718;2022-09-03T01:32:20;224013.20;;;17.02
68440;BMP180;55421;51.600;5.718;2022-09-03T01:37:45;223982.41;;;17.00
68440;BMP180;55421;51.600;5.718;2022-09-03T01:43:38;223954.80;;;16.90
68440;BMP180;55421;51.600;5.718;2022-09-03T01:46:22;223958.00;;;16.92
68440;BMP180;55421;51.600;5.718;2022-09-03T01:49:10;223954.80;;;16.92
68440;BMP180;55421;51.600;5.718;2022-09-03T01:51:42;223938.80;;;16.90
68440;BMP180;55421;51.600;5.718;2022-09-03T01:57:34;223916.00;;;16.90
68440;BMP180;55421;51.600;5.718;2022-09-03T02:00:15;223891.41;;;16.80
68440;BMP180;55421;51.600;5.718;2022-09-03T02:02:45;223872.80;;;16.80
68440;BMP180;55421;51.600;5.718;2022-09-03T02:07:53;223819.59;;;16.70
68440;BMP180;55421;51.600;5.718;2022-09-03T02:13:33;223763.80;;;16.60
68440;BMP180;55421;51.600;5.718;2022-09-03T02:16:09;223773.20;;;16.60
68440;BMP180;55421;51.600;5.718;2022-09-03T02:18:45;223750.59;;;16.60
68440;BMP180;55421;51.600;5.718;2022-09-03T02:21:19;223730.20;;;16.50
68440;BMP180;55421;51.600;5.718;2022-09-03T02:23:48;223703.00;;;16.50
68440;BMP180;55421;51.600;5.718;2022-09-03T02:26:20;223676.20;;;16.42
68440;BMP180;55421;51.600;5.718;2022-09-03T02:28:49;223646.20;;;16.40
68440;BMP180;55421;51.600;5.718;2022-09-03T02:31:16;223623.59;;;16.38
68440;BMP180;55421;51.600;5.718;2022-09-03T02:33:46;223604.00;;;16.30
68440;BMP180;55421;51.600;5.718;2022-09-03T02:36:18;223586.41;;;16.30
68440;BMP180;55421;51.600;5.718;2022-09-03T02:38:46;223572.59;;;16.30
68440;BMP180;55421;51.600;5.718;2022-09-03T02:41:13;223570.20;;;16.30
68440;BMP180;55421;51.600;5.718;2022-09-03T02:46:51;223542.20;;;16.20
68440;BMP180;55421;51.600;5.718;2022-09-03T02:49:18;223539.00;;;16.20
68440;BMP180;55421;51.600;5.718;2022-09-03T02:51:45;223542.20;;;16.20
68440;BMP180;55421;51.600;5.718;2022-09-03T02:54:12;223540.59;;;16.20
68440;BMP180;55421;51.600;5.718;2022-09-03T02:56:39;223532.59;;;16.20
68440;BMP180;55421;51.600;5.718;2022-09-03T02:59:08;223519.80;;;16.20
68440;BMP180;55421;51.600;5.718;2022-09-03T03:01:35;223510.59;;;16.14
68440;BMP180;55421;51.600;5.718;2022-09-03T03:04:02;223490.20;;;16.10
68440;BMP180;55421;51.600;5.718;2022-09-03T03:06:28;223474.59;;;16.10
68440;BMP180;55421;51.600;5.718;2022-09-03T03:08:54;223464.59;;;16.10
68440;BMP180;55421;51.600;5.718;2022-09-03T03:11:22;223452.80;;;16.00
68440;BMP180;55421;51.600;5.718;2022-09-03T03:13:52;223437.20;;;16.00
68440;BMP180;55421;51.600;5.718;2022-09-03T03:16:19;223427.59;;;16.00
68440;BMP180;55421;51.600;5.718;2022-09-03T03:18:45;223422.41;;;16.00
68440;BMP180;55421;51.600;5.718;2022-09-03T03:21:16;223422.00;;;16.00
68440;BMP180;55421;51.600;5.718;2022-09-03T03:23:44;223405.20;;;15.92
68440;BMP180;55421;51.600;5.718;2022-09-03T03:26:14;223396.00;;;15.92
68440;BMP180;55421;51.600;5.718;2022-09-03T03:28:44;223384.20;;;15.90
68440;BMP180;55421;51.600;5.718;2022-09-03T03:31:19;223388.00;;;15.90
68440;BMP180;55421;51.600;5.718;2022-09-03T03:33:54;223372.80;;;15.90
68440;BMP180;55421;51.600;5.718;2022-09-03T03:36:24;223364.20;;;15.90
68440;BMP180;55421;51.600;5.718;2022-09-03T03:38:57;223362.59;;;15.90
68440;BMP180;55421;51.600;5.718;2022-09-03T03:41:28;223342.20;;;15.86
68440;BMP180;55421;51.600;5.718;2022-09-03T03:44:00;223326.20;;;15.80
68440;BMP180;55421;51.600;5.718;2022-09-03T03:46:34;223309.00;;;15.80
68440;BMP180;55421;51.600;5.718;2022-09-03T03:49:00;223298.00;;;15.80
68440;BMP180;55421;51.600;5.718;2022-09-03T03:51:28;223284.41;;;15.74
68440;BMP180;55421;51.600;5.718;2022-09-03T03:53:57;223259.20;;;15.70
68440;BMP180;55421;51.600;5.718;2022-09-03T03:56:25;223244.80;;;15.70
68440;BMP180;55421;51.600;5.718;2022-09-03T03:58:53;223251.20;;;15.70
68440;BMP180;55421;51.600;5.718;2022-09-03T04:01:23;223251.20;;;15.70
68440;BMP180;55421;51.600;5.718;2022-09-03T04:03:51;223241.59;;;15.70
68440;BMP180;55421;51.600;5.718;2022-09-03T04:06:19;223243.20;;;15.70
68440;BMP180;55421;51.600;5.718;2022-09-03T04:08:48;223227.20;;;15.66
68440;BMP180;55421;51.600;5.718;2022-09-03T04:11:19;223219.59;;;15.60
68440;BMP180;55421;51.600;5.718;2022-09-03T04:13:47;223210.00;;;15.60
68440;BMP180;55421;51.600;5.718;2022-09-03T04:16:23;223203.59;;;15.60
68440;BMP180;55421;51.600;5.718;2022-09-03T04:18:52;223193.20;;;15.60
68440;BMP180;55421;51.600;5.718;2022-09-03T04:21:23;223181.59;;;15.58
68440;BMP180;55421;51.600;5.718;2022-09-03T04:23:51;223156.59;;;15.50
68440;BMP180;55421;51.600;5.718;2022-09-03T04:26:22;223136.20;;;15.50
68440;BMP180;55421;51.600;5.718;2022-09-03T04:28:48;223114.00;;;15.42
68440;BMP180;55421;51.600;5.718;2022-09-03T04:31:18;223084.00;;;15.40
68440;BMP180;55421;51.600;5.718;2022-09-03T04:33:45;223055.59;;;15.32
68440;BMP180;55421;51.600;5.718;2022-09-03T04:36:17;223041.20;;;15.30
68440;BMP180;55421;51.600;5.718;2022-09-03T04:38:46;223052.41;;;15.30
68440;BMP180;55421;51.600;5.718;2022-09-03T04:41:19;223049.20;;;15.30
68440;BMP180;55421;51.600;5.718;2022-09-03T04:43:46;223041.20;;;15.30
68440;BMP180;55421;51.600;5.718;2022-09-03T04:46:14;223036.00;;;15.30
68440;BMP180;55421;51.600;5.718;2022-09-03T04:48:42;223032.00;;;15.30
68440;BMP180;55421;51.600;5.718;2022-09-03T04:51:12;223039.59;;;15.30
68440;BMP180;55421;51.600;5.718;2022-09-03T04:53:43;223054.00;;;15.32
68440;BMP180;55421;51.600;5.718;2022-09-03T04:56:19;223054.00;;;15.30
68440;BMP180;55421;51.600;5.718;2022-09-03T04:58:47;223062.00;;;15.38
68440;BMP180;55421;51.600;5.718;2022-09-03T05:01:22;223065.20;;;15.40
68440;BMP180;55421;51.600;5.718;2022-09-03T05:03:49;223058.80;;;15.36
68440;BMP180;55421;51.600;5.718;2022-09-03T05:06:19;223047.59;;;15.30
68440;BMP180;55421;51.600;5.718;2022-09-03T05:08:50;223038.00;;;15.30
68440;BMP180;55421;51.600;5.718;2022-09-03T05:11:18;223022.00;;;15.30
68440;BMP180;55421;51.600;5.718;2022-09-03T05:13:51;223017.59;;;15.30
68440;BMP180;55421;51.600;5.718;2022-09-03T05:16:19;223026.00;;;15.30
68440;BMP180;55421;51.600;5.718;2022-09-03T05:18:46;223033.20;;;15.30
68440;BMP180;55421;51.600;5.718;2022-09-03T05:21:16;223036.41;;;15.30
68440;BMP180;55421;51.600;5.718;2022-09-03T05:23:46;223041.20;;;15.30
68440;BMP180;55421;51.600;5.718;2022-09-03T05:26:20;223046.00;;;15.30
68440;BMP180;55421;51.600;5.718;2022-09-03T05:28:47;223057.20;;;15.38
68440;BMP180;55421;51.600;5.718;2022-09-03T05:31:19;223079.20;;;15.40
68440;BMP180;55421;51.600;5.718;2022-09-03T05:33:50;223098.00;;;15.40
68440;BMP180;55421;51.600;5.718;2022-09-03T05:36:21;223131.80;;;15.50
68440;BMP180;55421;51.600;5.718;2022-09-03T05:38:51;223158.00;;;15.50
68440;BMP180;55421;51.600;5.718;2022-09-03T05:41:22;223183.20;;;15.58
68440;BMP180;55421;51.600;5.718;2022-09-03T05:43:54;223218.00;;;15.60
68440;BMP180;55421;51.600;5.718;2022-09-03T05:46:23;223233.20;;;15.70
68440;BMP180;55421;51.600;5.718;2022-09-03T05:49:01;223262.41;;;15.70
68440;BMP180;55421;51.600;5.718;2022-09-03T05:51:29;223282.41;;;15.72
68440;BMP180;55421;51.600;5.718;2022-09-03T05:53:57;223299.80;;;15.80
68440;BMP180;55421;51.600;5.718;2022-09-03T05:56:28;223325.80;;;15.80
68440;BMP180;55421;51.600;5.718;2022-09-03T05:58:58;223357.80;;;15.90
68440;BMP180;55421;51.600;5.718;2022-09-03T06:01:35;223412.00;;;16.00
68440;BMP180;55421;51.600;5.718;2022-09-03T06:04:07;223452.59;;;16.02
68440;BMP180;55421;51.600;5.718;2022-09-03T06:06:38;223493.00;;;16.10
68440;BMP180;55421;51.600;5.718;2022-09-03T06:09:08;223525.41;;;16.20
68440;BMP180;55421;51.600;5.718;2022-09-03T06:11:38;223555.00;;;16.20
68440;BMP180;55421;51.600;5.718;2022-09-03T06:14:07;223601.20;;;16.30
68440;BMP180;55421;51.600;5.718;2022-09-03T06:16:38;223640.41;;;16.40
68440;BMP180;55421;51.600;5.718;2022-09-03T06:19:06;223681.00;;;16.48
68440;BMP180;55421;51.600;5.718;2022-09-03T06:21:42;223718.59;;;16.50
68440;BMP180;55421;51.600;5.718;2022-09-03T06:24:20;223772.80;;;16.60
68440;BMP180;55421;51.600;5.718;2022-09-03T06:26:52;223821.20;;;16.70
68440;BMP180;55421;51.600;5.718;2022-09-03T06:29:18;223860.80;;;16.80
68440;BMP180;55421;51.600;5.718;2022-09-03T06:31:45;223893.00;;;16.80
68440;BMP180;55421;51.600;5.718;2022-09-03T06:34:13;223951.59;;;16.90
68440;BMP180;55421;51.600;5.718;2022-09-03T06:36:41;223982.00;;;17.00
68440;BMP180;55421;51.600;5.718;2022-09-03T06:39:07;224019.59;;;17.10
68440;BMP180;55421;51.600;5.718;2022-09-03T06:41:34;224074.20;;;17.16
68440;BMP180;55421;51.600;5.718;2022-09-03T06:44:04;224126.59;;;17.22
68440;BMP180;55421;51.600;5.718;2022-09-03T06:46:33;224182.00;;;17.30
68440;BMP180;55421;51.600;5.718;2022-09-03T06:49:01;224213.59;;;17.40
68440;BMP180;55421;51.600;5.718;2022-09-03T06:51:30;224255.41;;;17.50
68440;BMP180;55421;51.600;5.718;2022-09-03T06:54:06;224303.41;;;17.60
68440;BMP180;55421;51.600;5.718;2022-09-03T06:56:35;224346.20;;;17.60
68440;BMP180;55421;51.600;5.718;2022-09-03T06:59:13;224388.41;;;17.70
68440;BMP180;55421;51.600;5.718;2022-09-03T07:01:42;224445.41;;;17.80
68440;BMP180;55421;51.600;5.718;2022-09-03T07:04:09;224501.00;;;17.90
68440;BMP180;55421;51.600;5.718;2022-09-03T07:06:38;224560.00;;;18.00
68440;BMP180;55421;51.600;5.718;2022-09-03T07:09:07;224617.20;;;18.10
68440;BMP180;55421;51.600;5.718;2022-09-03T07:11:34;224683.41;;;18.20
68440;BMP180;55421;51.600;5.718;2022-09-03T07:14:03;224737.59;;;18.30
68440;BMP180;55421;51.600;5.718;2022-09-03T07:16:35;224781.59;;;18.40
68440;BMP180;55421;51.600;5.718;2022-09-03T07:19:04;224824.41;;;18.50
68440;BMP180;55421;51.600;5.718;2022-09-03T07:21:33;224866.20;;;18.58
68440;BMP180;55421;51.600;5.718;2022-09-03T07:24:02;224922.41;;;18.68
68440;BMP180;55421;51.600;5.718;2022-09-03T07:26:34;224978.80;;;18.70
68440;BMP180;55421;51.600;5.718;2022-09-03T07:29:01;225025.80;;;18.80
68440;BMP180;55421;51.600;5.718;2022-09-03T07:31:38;225075.41;;;18.90
68440;BMP180;55421;51.600;5.718;2022-09-03T07:34:08;225122.20;;;19.00
68440;BMP180;55421;51.600;5.718;2022-09-03T07:36:43;225176.00;;;19.10
68440;BMP180;55421;51.600;5.718;2022-09-03T07:39:13;225225.00;;;19.20
68440;BMP180;55421;51.600;5.718;2022-09-03T07:41:42;225279.00;;;19.30
68440;BMP180;55421;51.600;5.718;2022-09-03T07:44:12;225343.59;;;19.40
68440;BMP180;55421;51.600;5.718;2022-09-03T07:46:40;225399.20;;;19.50
68440;BMP180;55421;51.600;5.718;2022-09-03T07:49:08;225448.00;;;19.60
68440;BMP180;55421;51.600;5.718;2022-09-03T07:51:37;225483.00;;;19.60
68440;BMP180;55421;51.600;5.718;2022-09-03T07:54:07;225516.41;;;19.70
68440;BMP180;55421;51.600;5.718;2022-09-03T07:56:38;225560.00;;;19.78
68440;BMP180;55421;51.600;5.718;2022-09-03T07:59:05;225601.59;;;19.90
68440;BMP180;55421;51.600;5.718;2022-09-03T08:01:33;225647.00;;;19.92
68440;BMP180;55421;51.600;5.718;2022-09-03T08:04:01;225699.00;;;20.00
68440;BMP180;55421;51.600;5.718;2022-09-03T08:06:32;225765.59;;;20.10
68440;BMP180;55421;51.600;5.718;2022-09-03T08:09:06;225817.59;;;20.20
68440;BMP180;55421;51.600;5.718;2022-09-03T08:11:36;225877.41;;;20.30
68440;BMP180;55421;51.600;5.718;2022-09-03T08:14:09;225899.80;;;20.40
68440;BMP180;55421;51.600;5.718;2022-09-03T08:16:40;225930.20;;;20.40
68440;BMP180;55421;51.600;5.718;2022-09-03T08:19:10;225966.80;;;20.50
68440;BMP180;55421;51.600;5.718;2022-09-03T08:21:39;226013.80;;;20.60
68440;BMP180;55421;51.600;5.718;2022-09-03T08:24:07;226058.20;;;20.68
68440;BMP180;55421;51.600;5.718;2022-09-03T08:26:38;226115.41;;;20.80
68440;BMP180;55421;51.600;5.718;2022-09-03T08:29:06;226175.59;;;20.90
68440;BMP180;55421;51.600;5.718;2022-09-03T08:31:34;226223.41;;;20.98
68440;BMP180;55421;51.600;5.718;2022-09-03T08:34:05;226294.20;;;21.10
68440;BMP180;55421;51.600;5.718;2022-09-03T08:36:34;226348.80;;;21.20
68440;BMP180;55421;51.600;5.718;2022-09-03T08:39:04;226379.59;;;21.20
68440;BMP180;55421;51.600;5.718;2022-09-03T08:47:19;226498.00;;;21.42
68440;BMP180;55421;51.600;5.718;2022-09-03T08:49:59;226543.20;;;21.50
68440;BMP180;55421;51.600;5.718;2022-09-03T08:52:47;226567.59;;;21.60
68440;BMP180;55421;51.600;5.718;2022-09-03T08:55:33;226623.80;;;21.68
68440;BMP180;55421;51.600;5.718;2022-09-03T08:58:21;226670.20;;;21.72
68440;BMP180;55421;51.600;5.718;2022-09-03T09:00:57;226706.20;;;21.80
68440;BMP180;55421;51.600;5.718;2022-09-03T09:04:18;226751.41;;;21.90
68440;BMP180;55421;51.600;5.718;2022-09-03T09:07:16;226794.00;;;21.98
68440;BMP180;55421;51.600;5.718;2022-09-03T09:12:43;226888.20;;;22.10
68440;BMP180;55421;51.600;5.718;2022-09-03T09:20:57;227033.41;;;22.40
68440;BMP180;55421;51.600;5.718;2022-09-03T09:23:46;227084.59;;;22.50
68440;BMP180;55421;51.600;5.718;2022-09-03T09:26:17;227137.59;;;22.60
68440;BMP180;55421;51.600;5.718;2022-09-03T09:28:57;227177.20;;;22.64
68440;BMP180;55421;51.600;5.718;2022-09-03T09:31:27;227212.41;;;22.70
68440;BMP180;55421;51.600;5.718;2022-09-03T09:34:07;227285.80;;;22.80
68440;BMP180;55421;51.600;5.718;2022-09-03T09:36:44;227348.41;;;22.90
68440;BMP180;55421;51.600;5.718;2022-09-03T09:39:12;227380.00;;;23.00
68440;BMP180;55421;51.600;5.718;2022-09-03T09:41:42;227404.41;;;23.00
68440;BMP180;55421;51.600;5.718;2022-09-03T09:44:19;227422.00;;;23.10
68440;BMP180;55421;51.600;5.718;2022-09-03T09:46:48;227457.41;;;23.10
68440;BMP180;55421;51.600;5.718;2022-09-03T09:49:33;227513.41;;;23.20
68440;BMP180;55421;51.600;5.718;2022-09-03T09:52:09;227578.80;;;23.34
68440;BMP180;55421;51.600;5.718;2022-09-03T09:54:42;227594.41;;;23.40
68440;BMP180;55421;51.600;5.718;2022-09-03T09:57:20;227591.59;;;23.40
68440;BMP180;55421;51.600;5.718;2022-09-03T09:59:47;227574.00;;;23.30
68440;BMP180;55421;51.600;5.718;2022-09-03T10:02:24;227561.20;;;23.30
68440;BMP180;55421;51.600;5.718;2022-09-03T10:05:12;227543.59;;;23.30
68440;BMP180;55421;51.600;5.718;2022-09-03T10:07:39;227567.59;;;23.30
68440;BMP180;55421;51.600;5.718;2022-09-03T10:10:16;227625.80;;;23.40
68440;BMP180;55421;51.600;5.718;2022-09-03T10:12:52;227719.41;;;23.60
68440;BMP180;55421;51.600;5.718;2022-09-03T10:16:05;227790.00;;;23.70
68440;BMP180;55421;51.600;5.718;2022-09-03T10:18:56;227839.80;;;23.80
68440;BMP180;55421;51.600;5.718;2022-09-03T10:24:51;227954.00;;;24.00
68440;BMP180;55421;51.600;5.718;2022-09-03T10:27:21;228019.20;;;24.10
68440;BMP180;55421;51.600;5.718;2022-09-03T10:29:49;228097.20;;;24.30
68440;BMP180;55421;51.600;5.718;2022-09-03T10:32:38;228147.20;;;24.38
68440;BMP180;55421;51.600;5.718;2022-09-03T10:35:28;228260.20;;;24.60
68440;BMP180;55421;51.600;5.718;2022-09-03T10:38:29;228358.41;;;24.70
68440;BMP180;55421;51.600;5.718;2022-09-03T10:44:24;228463.41;;;24.90
68440;BMP180;55421;51.600;5.718;2022-09-03T10:47:29;228482.59;;;25.00
68440;BMP180;55421;51.600;5.718;2022-09-03T10:50:16;228533.41;;;25.00
68440;BMP180;55421;51.600;5.718;2022-09-03T10:53:20;228580.00;;;25.10
68440;BMP180;55421;51.600;5.718;2022-09-03T10:58:57;228638.20;;;25.20
68440;BMP180;55421;51.600;5.718;2022-09-03T11:04:21;228732.20;;;25.40
68440;BMP180;55421;51.600;5.718;2022-09-03T11:06:56;228772.80;;;25.50
68440;BMP180;55421;51.600;5.718;2022-09-03T11:12:20;228841.80;;;25.60
68440;BMP180;55421;51.600;5.718;2022-09-03T11:17:41;228840.20;;;25.60
68440;BMP180;55421;51.600;5.718;2022-09-03T11:20:20;228755.20;;;25.42
68440;BMP180;55421;51.600;5.718;2022-09-03T11:22:51;228644.59;;;25.22
68440;BMP180;55421;51.600;5.718;2022-09-03T11:25:25;228591.20;;;25.10
68440;BMP180;55421;51.600;5.718;2022-09-03T11:28:07;228541.41;;;25.04
68440;BMP180;55421;51.600;5.718;2022-09-03T11:30:55;228546.20;;;25.10
68440;BMP180;55421;51.600;5.718;2022-09-03T11:33:30;228619.00;;;25.20
68440;BMP180;55421;51.600;5.718;2022-09-03T11:36:00;228643.00;;;25.20
68440;BMP180;55421;51.600;5.718;2022-09-03T11:38:29;228684.59;;;25.30
68440;BMP180;55421;51.600;5.718;2022-09-03T11:43:33;228731.00;;;25.40
68440;BMP180;55421;51.600;5.718;2022-09-03T11:46:12;228763.20;;;25.46
68440;BMP180;55421;51.600;5.718;2022-09-03T11:49:24;228803.20;;;25.50
68440;BMP180;55421;51.600;5.718;2022-09-03T11:51:42;228804.80;;;25.50
68440;BMP180;55421;51.600;5.718;2022-09-03T11:56:41;228803.20;;;25.50
68440;BMP180;55421;51.600;5.718;2022-09-03T12:02:00;228843.41;;;25.60
68440;BMP180;55421;51.600;5.718;2022-09-03T12:08:07;228859.41;;;25.60
68440;BMP180;55421;51.600;5.718;2022-09-03T12:13:25;228893.00;;;25.70
68440;BMP180;55421;51.600;5.718;2022-09-03T12:19:40;228889.80;;;25.70
68440;BMP180;55421;51.600;5.718;2022-09-03T12:22:13;228857.80;;;25.60
68440;BMP180;55421;51.600;5.718;2022-09-03T12:24:42;228856.20;;;25.60
68440;BMP180;55421;51.600;5.718;2022-09-03T12:27:17;228870.59;;;25.60
68440;BMP180;55421;51.600;5.718;2022-09-03T12:29:53;228891.41;;;25.70
68440;BMP180;55421;51.600;5.718;2022-09-03T12:32:21;228904.20;;;25.70
68440;BMP180;55421;51.600;5.718;2022-09-03T12:34:48;228926.20;;;25.70
68440;BMP180;55421;51.600;5.718;2022-09-03T12:37:24;228934.00;;;25.70
68440;BMP180;55421;51.600;5.718;2022-09-03T12:39:53;228947.59;;;25.80
68440;BMP180;55421;51.600;5.718;2022-09-03T12:42:26;228947.59;;;25.78
68440;BMP180;55421;51.600;5.718;2022-09-03T12:44:53;228944.41;;;25.76
68440;BMP180;55421;51.600;5.718;2022-09-03T12:47:23;228957.20;;;25.80
68440;BMP180;55421;51.600;5.718;2022-09-03T12:49:56;228963.59;;;25.80
68440;BMP180;55421;51.600;5.718;2022-09-03T12:52:35;228984.41;;;25.82
68440;BMP180;55421;51.600;5.718;2022-09-03T13:00:35;229014.80;;;25.90
68440;BMP180;55421;51.600;5.718;2022-09-03T13:03:23;229024.41;;;25.90
68440;BMP180;55421;51.600;5.718;2022-09-03T13:06:00;229019.59;;;25.90
68440;BMP180;55421;51.600;5.718;2022-09-03T13:08:40;228994.00;;;25.90
68440;BMP180;55421;51.600;5.718;2022-09-03T13:11:09;228976.41;;;25.80
68440;BMP180;55421;51.600;5.718;2022-09-03T13:13:36;228978.00;;;25.80
68440;BMP180;55421;51.600;5.718;2022-09-03T13:19:34;229013.20;;;25.90
68440;BMP180;55421;51.600;5.718;2022-09-03T13:22:21;229032.41;;;25.90
68440;BMP180;55421;51.600;5.718;2022-09-03T13:33:58;229070.20;;;26.00
68440;BMP180;55421;51.600;5.718;2022-09-03T13:36:36;229067.00;;;26.00
68440;BMP180;55421;51.600;5.718;2022-09-03T13:39:26;229045.20;;;25.92
68440;BMP180;55421;51.600;5.718;2022-09-03T13:42:04;229037.20;;;25.90
68440;BMP180;55421;51.600;5.718;2022-09-03T13:44:47;229050.00;;;25.98
68440;BMP180;55421;51.600;5.718;2022-09-03T13:47:33;229051.59;;;25.98
68440;BMP180;55421;51.600;5.718;2022-09-03T13:50:14;229050.00;;;25.96
68440;BMP180;55421;51.600;5.718;2022-09-03T13:53:18;229056.41;;;26.00
68440;BMP180;55421;51.600;5.718;2022-09-03T13:55:54;229088.59;;;26.00
68440;BMP180;55421;51.600;5.718;2022-09-03T13:58:49;229088.59;;;26.00
68440;BMP180;55421;51.600;5.718;2022-09-03T14:01:44;229090.20;;;26.00
68440;BMP180;55421;51.600;5.718;2022-09-03T14:04:27;229084.41;;;26.00
68440;BMP180;55421;51.600;5.718;2022-09-03T14:07:07;229071.80;;;26.00
68440;BMP180;55421;51.600;5.718;2022-09-03T14:09:53;229071.80;;;26.00
68440;BMP180;55421;51.600;5.718;2022-09-03T14:15:47;229061.20;;;26.00
68440;BMP180;55421;51.600;5.718;2022-09-03T14:18:43;229084.41;;;26.00
68440;BMP180;55421;51.600;5.718;2022-09-03T14:21:55;229090.20;;;26.00
68440;BMP180;55421;51.600;5.718;2022-09-03T14:24:49;229081.80;;;26.00
68440;BMP180;55421;51.600;5.718;2022-09-03T14:27:26;229064.41;;;26.00
68440;BMP180;55421;51.600;5.718;2022-09-03T14:33:54;229042.00;;;25.90
68440;BMP180;55421;51.600;5.718;2022-09-03T14:36:54;228998.80;;;25.90
68440;BMP180;55421;51.600;5.718;2022-09-03T15:00:51;228960.41;;;25.80
68440;BMP180;55421;51.600;5.718;2022-09-03T15:07:05;228965.20;;;25.80
68440;BMP180;55421;51.600;5.718;2022-09-03T15:09:46;228978.00;;;25.80
68440;BMP180;55421;51.600;5.718;2022-09-03T15:12:32;228982.80;;;25.80
68440;BMP180;55421;51.600;5.718;2022-09-03T15:15:04;228994.00;;;25.84
68440;BMP180;55421;51.600;5.718;2022-09-03T15:18:10;228989.20;;;25.82
68440;BMP180;55421;51.600;5.718;2022-09-03T15:20:52;228998.80;;;25.90
68440;BMP180;55421;51.600;5.718;2022-09-03T15:23:27;229002.00;;;25.90
68440;BMP180;55421;51.600;5.718;2022-09-03T15:26:20;229000.41;;;25.90
68440;BMP180;55421;51.600;5.718;2022-09-03T15:29:20;228998.80;;;25.90
68440;BMP180;55421;51.600;5.718;2022-09-03T15:35:07;229000.41;;;25.90
68440;BMP180;55421;51.600;5.718;2022-09-03T15:41:09;228997.20;;;25.90
68440;BMP180;55421;51.600;5.718;2022-09-03T15:43:38;228994.00;;;25.84
68440;BMP180;55421;51.600;5.718;2022-09-03T15:46:36;228995.59;;;25.90
68440;BMP180;55421;51.600;5.718;2022-09-03T15:49:22;229000.41;;;25.90
68440;BMP180;55421;51.600;5.718;2022-09-03T15:52:05;228995.59;;;25.90
68440;BMP180;55421;51.600;5.718;2022-09-03T15:54:59;228981.20;;;25.80
68440;BMP180;55421;51.600;5.718;2022-09-03T15:57:39;228981.20;;;25.80
68440;BMP180;55421;51.600;5.718;2022-09-03T16:00:12;228981.20;;;25.80
68440;BMP180;55421;51.600;5.718;2022-09-03T16:03:08;228995.59;;;25.90
68440;BMP180;55421;51.600;5.718;2022-09-03T16:05:48;228997.20;;;25.90
68440;BMP180;55421;51.600;5.718;2022-09-03T16:08:31;228995.59;;;25.82
68440;BMP180;55421;51.600;5.718;2022-09-03T16:14:12;228994.00;;;25.88
68440;BMP180;55421;51.600;5.718;2022-09-03T16:20:51;228981.20;;;25.80
68440;BMP180;55421;51.600;5.718;2022-09-03T16:23:46;228976.41;;;25.80
68440;BMP180;55421;51.600;5.718;2022-09-03T16:26:41;228976.41;;;25.80
68440;BMP180;55421;51.600;5.718;2022-09-03T16:29:15;228974.80;;;25.80
68440;BMP180;55421;51.600;5.718;2022-09-03T16:32:27;228965.20;;;25.80
68440;BMP180;55421;51.600;5.718;2022-09-03T16:35:28;228954.00;;;25.80
68440;BMP180;55421;51.600;5.718;2022-09-03T16:41:02;228944.41;;;25.76
68440;BMP180;55421;51.600;5.718;2022-09-03T16:53:24;228950.80;;;25.80
68440;BMP180;55421;51.600;5.718;2022-09-03T16:59:03;229111.59;;;26.06
68440;BMP180;55421;51.600;5.718;2022-09-03T17:05:27;229079.20;;;26.00
68440;BMP180;55421;51.600;5.718;2022-09-03T17:14:20;228952.41;;;25.80
68440;BMP180;55421;51.600;5.718;2022-09-03T17:17:20;228869.00;;;25.60
68440;BMP180;55421;51.600;5.718;2022-09-03T17:20:19;228801.59;;;25.50
68440;BMP180;55421;51.600;5.718;2022-09-03T17:26:08;228679.80;;;25.30
68440;BMP180;55421;51.600;5.718;2022-09-03T17:29:02;228643.00;;;25.20
68440;BMP180;55421;51.600;5.718;2022-09-03T17:40:29;228468.20;;;24.90
68440;BMP180;55421;51.600;5.718;2022-09-03T17:43:27;228431.41;;;24.90
68440;BMP180;55421;51.600;5.718;2022-09-03T17:46:44;228399.59;;;24.80
68440;BMP180;55421;51.600;5.718;2022-09-03T17:49:24;228354.41;;;24.70
68440;BMP180;55421;51.600;5.718;2022-09-03T17:52:05;228317.59;;;24.66
68440;BMP180;55421;51.600;5.718;2022-09-03T17:54:44;228277.41;;;24.60
68440;BMP180;55421;51.600;5.718;2022-09-03T17:57:49;228247.80;;;24.52
68440;BMP180;55421;51.600;5.718;2022-09-03T18:00:21;228216.41;;;24.50
68440;BMP180;55421;51.600;5.718;2022-09-03T18:03:04;228189.20;;;24.40
68440;BMP180;55421;51.600;5.718;2022-09-03T18:05:44;228164.80;;;24.40